Time;durP1;ratioP1;P1;durP2;ratioP2;P2;SDS_P1;SDS_P2;PMS_P1;PMS_P2;Temp;Humidity;BMP_temperature;BMP_pressure;BME280_temperature;BME280_humidity;BME280_pressure;Samples;Min_cycle;Max_cycle;Signal;HPM_P1;HPM_P2
2021/01/11 00:00:15;;;;;;;;;37.67;37.67;;;;;;;;5024645;28;9003;-76
2021/01/11 00:02:42;;;;;;;;;36.67;36.67;;;;;;;;5024037;28;8934;-78
2021/01/11 00:05:12;;;;;;;;;40.00;40.00;;;;;;;;5025824;28;8860;-76
2021/01/11 00:07:40;;;;;;;;;49.67;48.00;;;;;;;;5026709;28;8880;-78
2021/01/11 00:10:09;;;;;;;;;36.33;33.00;;;;;;;;5024915;28;8946;-80
2021/01/11 00:12:37;;;;;;;;;37.33;36.33;;;;;;;;5023804;28;8869;-79
2021/01/11 00:15:05;;;;;;;;;64.25;52.50;;;;;;;;5024020;28;8888;-76
2021/01/11 00:17:33;;;;;;;;;38.33;36.00;;;;;;;;5030935;28;8868;-76
2021/01/11 00:20:00;;;;;;;;;26.67;26.67;;;;;;;;5022862;28;8930;-78
2021/01/11 00:22:28;;;;;;;;;40.67;39.67;;;;;;;;5025087;28;9680;-76
2021/01/11 00:24:55;;;;;;;;;48.67;46.33;;;;;;;;5022686;28;8990;-76
2021/01/11 00:27:22;;;;;;;;;48.25;45.50;;;;;;;;5025249;28;8948;-77
2021/01/11 00:29:49;;;;;;;;;55.75;48.00;;;;;;;;5023903;28;8877;-77
2021/01/11 00:32:17;;;;;;;;;31.00;30.67;;;;;;;;5021838;28;8821;-76
2021/01/11 00:34:43;;;;;;;;;43.67;43.67;;;;;;;;5007468;28;8864;-77
2021/01/11 00:37:11;;;;;;;;;44.33;44.33;;;;;;;;5023930;28;8869;-77
2021/01/11 00:39:39;;;;;;;;;48.67;42.33;;;;;;;;5024609;28;8874;-76
2021/01/11 00:42:06;;;;;;;;;38.33;38.33;;;;;;;;5022095;28;8849;-78
2021/01/11 00:44:33;;;;;;;;;38.00;36.00;;;;;;;;5024251;28;9037;-77
2021/01/11 00:47:00;;;;;;;;;33.00;33.00;;;;;;;;5025117;28;9013;-77
2021/01/11 00:49:27;;;;;;;;;42.67;42.67;;;;;;;;5027170;28;9633;-78
2021/01/11 00:51:54;;;;;;;;;40.33;40.33;;;;;;;;5024640;28;8897;-77
2021/01/11 00:54:21;;;;;;;;;42.33;38.00;;;;;;;;5018784;28;8889;-79
2021/01/11 00:56:49;;;;;;;;;49.00;44.33;;;;;;;;5024020;28;8967;-76
2021/01/11 00:59:17;;;;;;;;;47.33;44.00;;;;;;;;5005585;28;9623;-76
2021/01/11 01:01:51;;;;;;;;;84.25;62.00;;;;;;;;5005880;28;8852;-76
2021/01/11 01:04:18;;;;;;;;;48.67;45.33;;;;;;;;5024050;28;8949;-76
2021/01/11 01:06:45;;;;;;;;;41.33;41.33;;;;;;;;5022707;28;8989;-76
2021/01/11 01:09:12;;;;;;;;;41.67;39.00;;;;;;;;5030262;28;8864;-78
2021/01/11 01:11:39;;;;;;;;;46.00;43.67;;;;;;;;5022211;28;8888;-76
2021/01/11 01:14:07;;;;;;;;;36.67;36.67;;;;;;;;5023542;28;8868;-78
2021/01/11 01:16:35;;;;;;;;;40.00;40.00;;;;;;;;5022848;28;8910;-81
2021/01/11 01:19:02;;;;;;;;;42.00;42.00;;;;;;;;5023641;28;9618;-78
2021/01/11 01:21:29;;;;;;;;;38.00;37.33;;;;;;;;5033551;28;8862;-83
2021/01/11 01:23:56;;;;;;;;;27.33;27.33;;;;;;;;5025300;28;8884;-78
2021/01/11 01:26:23;;;;;;;;;33.67;33.67;;;;;;;;5024100;28;8867;-78
2021/01/11 01:28:50;;;;;;;;;43.33;42.67;;;;;;;;5022029;28;8924;-76
2021/01/11 01:31:18;;;;;;;;;41.33;41.33;;;;;;;;4995347;28;8833;-78
2021/01/11 01:33:45;;;;;;;;;38.33;37.67;;;;;;;;5020925;28;8884;-79
2021/01/11 01:36:12;;;;;;;;;42.00;42.00;;;;;;;;5006018;28;8884;-78
2021/01/11 01:38:39;;;;;;;;;53.25;49.50;;;;;;;;5021610;28;8868;-78
2021/01/11 01:41:06;;;;;;;;;65.25;54.75;;;;;;;;5025141;28;8859;-78
2021/01/11 01:43:33;;;;;;;;;65.00;54.25;;;;;;;;5005991;28;8872;-78
2021/01/11 01:46:00;;;;;;;;;80.00;60.50;;;;;;;;5016077;28;8855;-79
2021/01/11 01:48:28;;;;;;;;;48.00;45.33;;;;;;;;5017877;28;8868;-76
2021/01/11 01:50:55;;;;;;;;;39.00;36.67;;;;;;;;5021472;28;8904;-78
2021/01/11 01:53:22;;;;;;;;;36.33;36.33;;;;;;;;5023411;28;9463;-77
2021/01/11 01:55:50;;;;;;;;;33.33;33.33;;;;;;;;5021792;28;8875;-77
2021/01/11 01:58:18;;;;;;;;;56.50;49.75;;;;;;;;5018565;28;8991;-74
2021/01/11 02:00:45;;;;;;;;;49.00;45.00;;;;;;;;5003925;28;8785;-75
2021/01/11 02:03:12;;;;;;;;;49.33;45.33;;;;;;;;5022276;28;9937;-76
2021/01/11 02:05:39;;;;;;;;;40.33;38.33;;;;;;;;5022726;28;8861;-80
2021/01/11 02:08:10;;;;;;;;;44.00;41.67;;;;;;;;5028580;28;8871;-78
2021/01/11 02:10:51;;;;;;;;;43.67;42.67;;;;;;;;5024043;28;8987;-78
2021/01/11 02:13:35;;;;;;;;;29.67;28.00;;;;;;;;5023850;28;8963;-81
2021/01/11 02:16:08;;;;;;;;;49.00;44.33;;;;;;;;5005149;28;8869;-80
2021/01/11 02:18:44;;;;;;;;;38.67;35.67;;;;;;;;5023996;28;9714;-79
2021/01/11 02:21:50;;;;;;;;;32.67;32.67;;;;;;;;5021499;28;8886;-78
2021/01/11 02:24:48;;;;;;;;;39.33;39.33;;;;;;;;4986927;28;8892;-77
2021/01/11 02:27:32;;;;;;;;;40.33;38.33;;;;;;;;5021465;28;8875;-77
2021/01/11 02:30:27;;;;;;;;;33.67;33.67;;;;;;;;5021459;28;8883;-77
2021/01/11 02:32:58;;;;;;;;;47.33;44.33;;;;;;;;4996712;28;8817;-76
2021/01/11 02:35:26;;;;;;;;;38.67;37.33;;;;;;;;5022298;28;8877;-78
2021/01/11 02:37:54;;;;;;;;;38.33;36.67;;;;;;;;5022286;28;8872;-76
2021/01/11 02:40:20;;;;;;;;;38.67;37.67;;;;;;;;5022175;28;8853;-86
2021/01/11 02:42:47;;;;;;;;;40.00;39.33;;;;;;;;5021225;28;8857;-76
2021/01/11 02:45:14;;;;;;;;;42.00;40.00;;;;;;;;5022838;28;8869;-78
2021/01/11 02:47:59;;;;;;;;;40.00;37.00;;;;;;;;5016336;28;8890;-80
2021/01/11 02:50:27;;;;;;;;;40.33;35.67;;;;;;;;5022345;28;8865;-77
2021/01/11 02:53:06;;;;;;;;;37.67;37.67;;;;;;;;5021781;28;8861;-77
2021/01/11 02:55:43;;;;;;;;;46.67;45.33;;;;;;;;5024262;28;8865;-78
2021/01/11 02:58:14;;;;;;;;;44.67;41.33;;;;;;;;5024827;28;9723;-79
2021/01/11 03:00:43;;;;;;;;;41.67;37.67;;;;;;;;5006717;28;8898;-77
2021/01/11 03:03:13;;;;;;;;;43.67;43.67;;;;;;;;5026335;28;8886;-78
2021/01/11 03:05:40;;;;;;;;;37.67;37.67;;;;;;;;5019013;28;8860;-83
2021/01/11 03:08:07;;;;;;;;;38.33;38.33;;;;;;;;5030535;28;8882;-78
2021/01/11 03:10:34;;;;;;;;;64.33;55.33;;;;;;;;5030130;28;8875;-83
2021/01/11 03:13:02;;;;;;;;;39.00;37.00;;;;;;;;5024142;28;8905;-80
2021/01/11 03:15:29;;;;;;;;;41.00;41.00;;;;;;;;5026665;28;8849;-81
2021/01/11 03:17:55;;;;;;;;;21.00;21.00;;;;;;;;5027990;28;8907;-83
2021/01/11 03:20:23;;;;;;;;;31.67;31.67;;;;;;;;5025746;28;8915;-79
2021/01/11 03:22:50;;;;;;;;;37.67;37.33;;;;;;;;5024851;28;8970;-75
2021/01/11 03:25:17;;;;;;;;;34.00;34.00;;;;;;;;5025291;28;8895;-74
2021/01/11 03:27:44;;;;;;;;;45.67;42.67;;;;;;;;5025439;28;8946;-73
2021/01/11 03:30:11;;;;;;;;;34.67;34.00;;;;;;;;5024468;28;8903;-78
2021/01/11 03:32:38;;;;;;;;;33.67;31.67;;;;;;;;5025268;28;8922;-78
2021/01/11 03:35:06;;;;;;;;;37.33;35.67;;;;;;;;5024824;28;8903;-78
2021/01/11 03:37:34;;;;;;;;;39.00;39.00;;;;;;;;5024604;28;8852;-74
2021/01/11 03:40:01;;;;;;;;;37.67;36.33;;;;;;;;5024341;28;8888;-74
2021/01/11 03:42:28;;;;;;;;;39.00;35.33;;;;;;;;5023682;28;9008;-74
2021/01/11 03:44:55;;;;;;;;;35.00;35.00;;;;;;;;5032951;28;8876;-76
2021/01/11 03:47:21;;;;;;;;;38.00;37.67;;;;;;;;5027026;28;8913;-75
2021/01/11 03:49:48;;;;;;;;;40.67;36.00;;;;;;;;5025346;28;8895;-80
2021/01/11 03:52:15;;;;;;;;;50.67;46.00;;;;;;;;5024070;28;9003;-79
2021/01/11 03:54:43;;;;;;;;;67.33;52.67;;;;;;;;5025576;28;8861;-75
2021/01/11 03:57:10;;;;;;;;;42.67;41.33;;;;;;;;5024126;28;8889;-75
2021/01/11 03:59:37;;;;;;;;;47.67;43.00;;;;;;;;5024850;28;8872;-76
2021/01/11 04:02:04;;;;;;;;;41.33;41.33;;;;;;;;5006410;28;8837;-80
2021/01/11 04:04:31;;;;;;;;;42.67;42.33;;;;;;;;5025227;28;8857;-76
2021/01/11 04:06:58;;;;;;;;;42.00;42.00;;;;;;;;5023627;28;8882;-78
2021/01/11 04:09:25;;;;;;;;;85.50;65.75;;;;;;;;5025135;28;8861;-77
2021/01/11 04:11:53;;;;;;;;;37.00;36.33;;;;;;;;5024671;28;8860;-79
2021/01/11 04:14:20;;;;;;;;;46.33;45.00;;;;;;;;5022982;28;8907;-78
2021/01/11 04:16:47;;;;;;;;;40.00;37.00;;;;;;;;5032530;28;8866;-77
2021/01/11 04:19:14;;;;;;;;;40.67;40.67;;;;;;;;5007875;28;8892;-76
2021/01/11 04:21:42;;;;;;;;;32.33;32.33;;;;;;;;5028436;28;8874;-76
2021/01/11 04:24:09;;;;;;;;;40.00;37.00;;;;;;;;5025200;28;8918;-83
2021/01/11 04:26:35;;;;;;;;;37.67;36.00;;;;;;;;5023912;28;8884;-83
2021/01/11 04:29:04;;;;;;;;;45.00;42.00;;;;;;;;5022901;28;8860;-84
2021/01/11 04:31:30;;;;;;;;;55.00;51.00;;;;;;;;5006112;28;8803;-78
2021/01/11 04:33:57;;;;;;;;;43.67;43.67;;;;;;;;4987911;28;8890;-77
2021/01/11 04:36:24;;;;;;;;;36.33;36.33;;;;;;;;4986606;28;8887;-79
2021/01/11 04:38:51;;;;;;;;;48.33;46.67;;;;;;;;5003493;28;8859;-77
2021/01/11 04:41:19;;;;;;;;;44.33;42.33;;;;;;;;4998162;28;9641;-78
2021/01/11 04:43:48;;;;;;;;;50.67;48.33;;;;;;;;5004235;28;8932;-77
2021/01/11 04:46:15;;;;;;;;;47.67;46.33;;;;;;;;4994018;28;8870;-77
2021/01/11 04:48:43;;;;;;;;;61.67;54.33;;;;;;;;4987077;28;9681;-77
2021/01/11 04:51:10;;;;;;;;;59.00;49.00;;;;;;;;5004687;28;8894;-76
2021/01/11 04:53:42;;;;;;;;;53.33;49.00;;;;;;;;5002873;28;8952;-77
2021/01/11 04:56:11;;;;;;;;;50.33;47.33;;;;;;;;5005250;28;8867;-76
2021/01/11 04:58:54;;;;;;;;;58.67;52.67;;;;;;;;5003172;28;8858;-77
2021/01/11 05:01:23;;;;;;;;;39.00;39.00;;;;;;;;5001055;28;8819;-76
2021/01/11 05:03:51;;;;;;;;;53.00;48.67;;;;;;;;4989715;28;8998;-76
2021/01/11 05:06:19;;;;;;;;;42.00;42.00;;;;;;;;5002784;28;8964;-76
2021/01/11 05:08:46;;;;;;;;;50.67;47.00;;;;;;;;5007105;28;8901;-76
2021/01/11 05:11:13;;;;;;;;;38.33;38.33;;;;;;;;4980050;28;8900;-78
2021/01/11 05:13:41;;;;;;;;;50.33;47.67;;;;;;;;4964146;28;8904;-83
2021/01/11 05:16:12;;;;;;;;;71.33;60.67;;;;;;;;4967260;28;8880;-83
2021/01/11 05:18:40;;;;;;;;;48.67;47.33;;;;;;;;4962806;28;8868;-76
2021/01/11 05:21:07;;;;;;;;;51.67;46.00;;;;;;;;4964802;28;8937;-78
2021/01/11 05:23:38;;;;;;;;;45.33;40.67;;;;;;;;4962390;28;8876;-79
2021/01/11 05:26:15;;;;;;;;;58.00;51.00;;;;;;;;4964995;28;9058;-78
2021/01/11 05:28:42;;;;;;;;;55.00;48.00;;;;;;;;4963323;28;9014;-75
2021/01/11 05:31:09;;;;;;;;;58.00;50.33;;;;;;;;4964467;28;8845;-75
2021/01/11 05:33:36;;;;;;;;;57.00;49.00;;;;;;;;4966667;28;8882;-76
2021/01/11 05:36:06;;;;;;;;;56.67;48.33;;;;;;;;4965042;28;8932;-75
2021/01/11 05:38:35;;;;;;;;;75.33;62.33;;;;;;;;4964829;28;8897;-75
2021/01/11 05:41:16;;;;;;;;;65.67;55.00;;;;;;;;4964672;28;8923;-75
2021/01/11 05:43:43;;;;;;;;;69.67;57.33;;;;;;;;4957423;28;8904;-75
2021/01/11 05:46:25;;;;;;;;;55.00;48.33;;;;;;;;4963516;28;8889;-78
2021/01/11 05:48:59;;;;;;;;;59.33;52.33;;;;;;;;4961150;28;8908;-78
2021/01/11 05:51:28;;;;;;;;;66.00;57.00;;;;;;;;4964106;28;9075;-76
2021/01/11 05:53:56;;;;;;;;;63.33;55.00;;;;;;;;4964265;28;9674;-77
2021/01/11 05:56:23;;;;;;;;;44.00;43.67;;;;;;;;4964793;28;9608;-79
2021/01/11 05:59:04;;;;;;;;;55.67;49.67;;;;;;;;4963137;28;8909;-82
2021/01/11 06:01:32;;;;;;;;;69.67;59.33;;;;;;;;4961653;28;9419;-76
2021/01/11 06:03:59;;;;;;;;;60.67;52.67;;;;;;;;4963688;28;8869;-76
2021/01/11 06:06:27;;;;;;;;;65.67;56.33;;;;;;;;4947396;28;8892;-75
2021/01/11 06:08:54;;;;;;;;;66.00;54.67;;;;;;;;4964199;28;8897;-73
2021/01/11 06:11:24;;;;;;;;;56.00;50.33;;;;;;;;4970516;28;8945;-79
2021/01/11 06:13:52;;;;;;;;;66.00;55.00;;;;;;;;5002002;28;8848;-75
2021/01/11 06:16:20;;;;;;;;;67.67;54.00;;;;;;;;5001744;28;8988;-76
2021/01/11 06:18:50;;;;;;;;;58.67;52.00;;;;;;;;5001842;28;8880;-79
2021/01/11 06:21:17;;;;;;;;;84.67;71.33;;;;;;;;4999278;28;8860;-79
2021/01/11 06:23:45;;;;;;;;;57.67;41.33;;;;;;;;5004556;28;8956;-79
2021/01/11 06:26:39;;;;;;;;;90.33;73.33;;;;;;;;4999710;28;8833;-79
2021/01/11 06:29:28;;;;;;;;;46.33;46.00;;;;;;;;4952399;28;8880;-77
2021/01/11 06:31:57;;;;;;;;;63.67;54.33;;;;;;;;4997672;28;8906;-78
2021/01/11 06:34:34;;;;;;;;;65.00;57.33;;;;;;;;4998668;28;8880;-77
2021/01/11 06:37:03;;;;;;;;;65.67;56.00;;;;;;;;4999810;28;9009;-81
2021/01/11 06:39:33;;;;;;;;;70.00;57.33;;;;;;;;5001829;28;8872;-77
2021/01/11 06:42:11;;;;;;;;;58.67;49.67;;;;;;;;5000020;28;8892;-80
2021/01/11 06:44:40;;;;;;;;;67.67;56.33;;;;;;;;4999492;28;8918;-77
2021/01/11 06:47:09;;;;;;;;;70.00;58.00;;;;;;;;5001301;28;8895;-76
2021/01/11 06:49:37;;;;;;;;;75.00;63.67;;;;;;;;5003559;28;8861;-78
2021/01/11 06:52:07;;;;;;;;;76.33;61.00;;;;;;;;5010407;28;8870;-80
2021/01/11 06:54:43;;;;;;;;;57.67;51.00;;;;;;;;5001249;28;8884;-75
2021/01/11 06:57:13;;;;;;;;;68.67;58.67;;;;;;;;5001366;28;8896;-69
2021/01/11 06:59:41;;;;;;;;;62.67;54.67;;;;;;;;5000275;28;8895;-71
2021/01/11 07:02:22;;;;;;;;;63.33;56.00;;;;;;;;4974567;28;9626;-72
2021/01/11 07:04:49;;;;;;;;;75.67;63.00;;;;;;;;4940116;28;8942;-71
2021/01/11 07:07:21;;;;;;;;;74.33;63.33;;;;;;;;4943169;28;9621;-71
2021/01/11 07:09:57;;;;;;;;;81.67;66.00;;;;;;;;4943830;28;8874;-70
2021/01/11 07:12:25;;;;;;;;;78.00;64.67;;;;;;;;4956885;28;8919;-72
2021/01/11 07:16:44;;;;;;;;;75.50;59.50;;;;;;;;5112816;27;13420;-71
2021/01/11 07:19:12;;;;;;;;;77.00;63.00;;;;;;;;5135685;27;8849;-72
2021/01/11 07:21:40;;;;;;;;;82.67;65.33;;;;;;;;5099726;28;8898;-71
2021/01/11 07:24:08;;;;;;;;;78.67;66.67;;;;;;;;5100660;28;9645;-71
2021/01/11 07:26:36;;;;;;;;;87.25;70.50;;;;;;;;5102500;28;8885;-72
2021/01/11 07:29:05;;;;;;;;;82.67;67.67;;;;;;;;5099700;28;8875;-72
2021/01/11 07:31:33;;;;;;;;;79.00;66.00;;;;;;;;5067415;28;8822;-72
2021/01/11 07:34:06;;;;;;;;;75.33;63.33;;;;;;;;5053895;28;8896;-72
2021/01/11 07:36:35;;;;;;;;;79.67;66.00;;;;;;;;5044712;28;8949;-71
2021/01/11 07:39:18;;;;;;;;;79.00;65.33;;;;;;;;5047317;28;8881;-72
2021/01/11 07:41:48;;;;;;;;;85.67;66.00;;;;;;;;5058147;28;8970;-71
2021/01/11 07:44:20;;;;;;;;;85.67;66.00;;;;;;;;5054389;28;8891;-71
2021/01/11 07:46:56;;;;;;;;;74.33;64.00;;;;;;;;5049181;28;8875;-71
2021/01/11 07:49:24;;;;;;;;;70.00;58.33;;;;;;;;5059337;28;8861;-71
2021/01/11 07:51:51;;;;;;;;;89.00;70.67;;;;;;;;5050000;28;8883;-71
2021/01/11 07:54:20;;;;;;;;;75.00;61.00;;;;;;;;5058019;28;8869;-71
2021/01/11 07:56:48;;;;;;;;;88.75;71.00;;;;;;;;5052097;28;8865;-72
2021/01/11 07:59:15;;;;;;;;;98.75;76.00;;;;;;;;5055422;28;8942;-71
2021/01/11 08:01:43;;;;;;;;;89.67;70.33;;;;;;;;5053648;28;8833;-71
2021/01/11 08:04:12;;;;;;;;;69.33;59.00;;;;;;;;5057593;28;8881;-72
2021/01/11 08:06:50;;;;;;;;;69.67;58.00;;;;;;;;5053436;28;8851;-72
2021/01/11 08:09:18;;;;;;;;;75.67;61.00;;;;;;;;5048813;28;8954;-72
2021/01/11 08:11:45;;;;;;;;;76.33;57.67;;;;;;;;5058844;28;8895;-72
2021/01/11 08:14:12;;;;;;;;;71.33;56.33;;;;;;;;5057724;28;8923;-71
2021/01/11 08:16:41;;;;;;;;;67.67;52.67;;;;;;;;5058875;28;8861;-72
2021/01/11 08:19:08;;;;;;;;;72.00;54.67;;;;;;;;5057552;28;8935;-72
2021/01/11 08:21:35;;;;;;;;;63.00;52.33;;;;;;;;5056393;28;8946;-72
2021/01/11 08:24:06;;;;;;;;;62.33;52.00;;;;;;;;5057849;28;8988;-72
2021/01/11 08:26:38;;;;;;;;;62.33;51.67;;;;;;;;5052698;28;8893;-72
2021/01/11 08:29:07;;;;;;;;;66.00;54.67;;;;;;;;5045549;28;8884;-72
2021/01/11 08:31:34;;;;;;;;;69.67;54.67;;;;;;;;5043834;28;9717;-73
2021/01/11 08:34:01;;;;;;;;;45.67;43.33;;;;;;;;5045672;28;8857;-72
2021/01/11 08:36:31;;;;;;;;;73.00;52.67;;;;;;;;5038068;28;9616;-72
2021/01/11 08:39:07;;;;;;;;;50.33;44.00;;;;;;;;5039511;28;8880;-72
2021/01/11 08:41:36;;;;;;;;;66.33;53.00;;;;;;;;5032820;28;8842;-72
2021/01/11 08:44:03;;;;;;;;;50.33;45.33;;;;;;;;5037744;28;8884;-72
2021/01/11 08:46:52;;;;;;;;;55.33;47.00;;;;;;;;5026573;28;8881;-72
2021/01/11 08:49:19;;;;;;;;;65.33;51.00;;;;;;;;5027962;28;9904;-72
2021/01/11 08:51:47;;;;;;;;;52.00;46.00;;;;;;;;5032792;28;8865;-72
2021/01/11 08:54:29;;;;;;;;;59.00;47.00;;;;;;;;5025202;28;8876;-72
2021/01/11 08:56:57;;;;;;;;;55.67;48.33;;;;;;;;5040979;28;8845;-73
2021/01/11 08:59:24;;;;;;;;;49.67;45.67;;;;;;;;5034430;28;8863;-71
2021/01/11 09:01:51;;;;;;;;;63.67;52.67;;;;;;;;5043038;28;8813;-71
2021/01/11 09:04:32;;;;;;;;;59.00;52.33;;;;;;;;5044732;28;8877;-71
2021/01/11 09:07:00;;;;;;;;;65.67;53.33;;;;;;;;5043424;28;8877;-71
2021/01/11 09:09:30;;;;;;;;;70.00;57.33;;;;;;;;5037782;28;8958;-71
2021/01/11 09:12:02;;;;;;;;;70.00;55.67;;;;;;;;5044104;28;8865;-71
2021/01/11 09:14:31;;;;;;;;;71.33;58.00;;;;;;;;5043993;28;8853;-71
2021/01/11 09:17:00;;;;;;;;;68.00;52.67;;;;;;;;5043739;28;9576;-73
2021/01/11 09:19:28;;;;;;;;;71.33;55.67;;;;;;;;5043234;28;8869;-71
2021/01/11 09:22:14;;;;;;;;;68.00;55.67;;;;;;;;5042306;28;10271;-72
2021/01/11 09:24:43;;;;;;;;;78.33;62.67;;;;;;;;5038485;28;8885;-74
2021/01/11 09:27:10;;;;;;;;;73.33;58.00;;;;;;;;5031894;28;8849;-71
2021/01/11 09:29:38;;;;;;;;;69.33;55.33;;;;;;;;5035114;28;8949;-73
2021/01/11 09:32:05;;;;;;;;;58.67;50.67;;;;;;;;5028241;28;8835;-71
2021/01/11 09:34:32;;;;;;;;;62.00;50.33;;;;;;;;5025421;28;8872;-71
2021/01/11 09:36:59;;;;;;;;;65.33;53.00;;;;;;;;5039191;28;9438;-73
2021/01/11 09:39:26;;;;;;;;;73.33;58.00;;;;;;;;5032189;28;9675;-74
2021/01/11 09:41:56;;;;;;;;;73.67;57.67;;;;;;;;5038683;28;8873;-72
2021/01/11 09:44:23;;;;;;;;;67.00;55.00;;;;;;;;5039554;28;9468;-73
2021/01/11 09:46:52;;;;;;;;;73.00;58.00;;;;;;;;5043411;28;8865;-73
2021/01/11 09:49:19;;;;;;;;;55.67;46.67;;;;;;;;5037165;28;8914;-72
2021/01/11 09:51:46;;;;;;;;;67.67;55.00;;;;;;;;5036614;28;8859;-72
2021/01/11 09:54:13;;;;;;;;;71.33;56.33;;;;;;;;5031369;28;8863;-72
2021/01/11 09:56:40;;;;;;;;;60.33;51.00;;;;;;;;5044019;28;8933;-73
2021/01/11 09:59:10;;;;;;;;;77.00;62.00;;;;;;;;5042038;28;8896;-72
2021/01/11 10:01:38;;;;;;;;;70.00;57.67;;;;;;;;5036020;28;8894;-73
2021/01/11 10:04:05;;;;;;;;;72.00;55.00;;;;;;;;5034422;28;8848;-73
2021/01/11 10:06:40;;;;;;;;;80.00;57.00;;;;;;;;5032415;28;8966;-72
2021/01/11 10:09:07;;;;;;;;;72.33;56.67;;;;;;;;5035741;28;8867;-71
2021/01/11 10:11:34;;;;;;;;;75.00;58.00;;;;;;;;5031516;28;8856;-71
2021/01/11 10:14:01;;;;;;;;;69.67;55.33;;;;;;;;5029041;28;8864;-73
2021/01/11 10:16:29;;;;;;;;;64.00;53.00;;;;;;;;5036046;28;8849;-71
2021/01/11 10:18:56;;;;;;;;;74.33;60.33;;;;;;;;5035631;28;8884;-73
2021/01/11 10:21:23;;;;;;;;;71.00;56.33;;;;;;;;5028431;28;8868;-74
2021/01/11 10:23:50;;;;;;;;;71.33;57.00;;;;;;;;5033290;28;8857;-71
2021/01/11 10:26:18;;;;;;;;;68.33;57.00;;;;;;;;5024298;28;8913;-71
2021/01/11 10:28:45;;;;;;;;;75.00;62.00;;;;;;;;5028814;28;8877;-71
2021/01/11 10:31:12;;;;;;;;;69.67;58.67;;;;;;;;5028499;28;8904;-71
2021/01/11 10:33:39;;;;;;;;;76.67;58.00;;;;;;;;5026656;28;8898;-73
2021/01/11 10:36:07;;;;;;;;;69.33;55.67;;;;;;;;5030682;28;9641;-73
2021/01/11 10:38:35;;;;;;;;;75.33;62.00;;;;;;;;5028126;28;8861;-71
2021/01/11 10:41:01;;;;;;;;;83.33;64.33;;;;;;;;5028601;28;8871;-71
2021/01/11 10:43:30;;;;;;;;;73.33;59.67;;;;;;;;5028991;28;8881;-72
2021/01/11 10:45:57;;;;;;;;;85.33;63.67;;;;;;;;5038103;28;8861;-72
2021/01/11 10:48:24;;;;;;;;;69.00;59.00;;;;;;;;5032580;28;9633;-72
2021/01/11 10:50:51;;;;;;;;;72.00;57.00;;;;;;;;5024671;28;8856;-71
2021/01/11 10:53:18;;;;;;;;;78.00;62.33;;;;;;;;5033034;28;8932;-72
2021/01/11 10:55:47;;;;;;;;;77.00;62.33;;;;;;;;5027921;28;8953;-71
2021/01/11 10:58:14;;;;;;;;;70.00;55.33;;;;;;;;5029276;28;8868;-73
2021/01/11 11:00:41;;;;;;;;;74.67;58.67;;;;;;;;5030788;28;8830;-71
2021/01/11 11:03:08;;;;;;;;;68.00;56.33;;;;;;;;5026389;28;9634;-69
2021/01/11 11:05:35;;;;;;;;;67.00;55.67;;;;;;;;5028447;28;8934;-72
2021/01/11 11:08:03;;;;;;;;;76.33;60.33;;;;;;;;5037905;28;8852;-75
2021/01/11 11:10:30;;;;;;;;;68.67;57.33;;;;;;;;5025299;28;8826;-72
2021/01/11 11:12:56;;;;;;;;;72.33;58.33;;;;;;;;5029332;28;8881;-74
2021/01/11 11:15:24;;;;;;;;;76.00;62.33;;;;;;;;5035664;28;8869;-74
2021/01/11 11:17:50;;;;;;;;;69.67;57.00;;;;;;;;5032822;28;8875;-71
2021/01/11 11:20:17;;;;;;;;;71.00;58.67;;;;;;;;5034401;28;8885;-71
2021/01/11 11:22:44;;;;;;;;;72.67;58.33;;;;;;;;5030335;28;8864;-71
2021/01/11 11:25:14;;;;;;;;;76.00;60.00;;;;;;;;5039209;28;8940;-72
2021/01/11 11:27:41;;;;;;;;;70.67;59.67;;;;;;;;5041910;28;8849;-73
2021/01/11 11:30:09;;;;;;;;;80.33;62.33;;;;;;;;5033267;28;8869;-72
2021/01/11 11:32:36;;;;;;;;;72.67;57.33;;;;;;;;5036976;28;8873;-72
2021/01/11 11:35:05;;;;;;;;;77.00;62.33;;;;;;;;5035157;28;8892;-72
2021/01/11 11:37:36;;;;;;;;;72.33;58.67;;;;;;;;5040793;28;8896;-71
2021/01/11 11:40:04;;;;;;;;;71.00;58.33;;;;;;;;5035780;28;8838;-72
2021/01/11 11:42:34;;;;;;;;;74.67;62.00;;;;;;;;5030022;28;8901;-70
2021/01/11 11:45:03;;;;;;;;;79.67;63.33;;;;;;;;5036486;28;8991;-71
2021/01/11 11:47:33;;;;;;;;;63.33;54.33;;;;;;;;5029200;28;8879;-71
2021/01/11 11:50:00;;;;;;;;;73.67;57.67;;;;;;;;5030984;28;8863;-70
2021/01/11 11:52:27;;;;;;;;;73.67;59.00;;;;;;;;5025106;28;8895;-70
2021/01/11 11:54:56;;;;;;;;;69.33;58.33;;;;;;;;5028151;28;8856;-72
2021/01/11 11:57:23;;;;;;;;;65.00;55.00;;;;;;;;5037256;28;8856;-71
2021/01/11 11:59:50;;;;;;;;;69.67;57.33;;;;;;;;5028660;28;8888;-70
2021/01/11 12:02:17;;;;;;;;;68.67;55.33;;;;;;;;5037513;28;8843;-71
2021/01/11 12:04:44;;;;;;;;;62.67;52.67;;;;;;;;5036422;28;8851;-71
2021/01/11 12:07:14;;;;;;;;;67.67;54.67;;;;;;;;5033036;28;9639;-71
2021/01/11 12:09:41;;;;;;;;;61.67;50.00;;;;;;;;5034905;28;8867;-69
2021/01/11 12:12:08;;;;;;;;;78.67;62.67;;;;;;;;5040707;28;8849;-71
2021/01/11 12:14:35;;;;;;;;;80.67;58.67;;;;;;;;5037176;28;8998;-71
2021/01/11 12:17:04;;;;;;;;;78.33;61.33;;;;;;;;5036009;28;8865;-71
2021/01/11 12:19:31;;;;;;;;;67.33;55.67;;;;;;;;5035358;28;8902;-72
2021/01/11 12:21:58;;;;;;;;;68.00;54.33;;;;;;;;5039102;28;8872;-71
2021/01/11 12:24:25;;;;;;;;;70.00;58.67;;;;;;;;5038153;28;8860;-70
2021/01/11 12:26:54;;;;;;;;;68.00;56.67;;;;;;;;5036616;28;11731;-71
2021/01/11 12:29:21;;;;;;;;;72.33;58.00;;;;;;;;5034839;28;8866;-71
2021/01/11 12:31:50;;;;;;;;;71.33;58.00;;;;;;;;5036787;28;8832;-71
2021/01/11 12:34:18;;;;;;;;;65.00;53.67;;;;;;;;5032379;28;11604;-71
2021/01/11 12:36:44;;;;;;;;;65.00;53.33;;;;;;;;5044590;28;11579;-72
2021/01/11 12:39:12;;;;;;;;;67.67;53.33;;;;;;;;5035534;28;11657;-71
2021/01/11 12:41:40;;;;;;;;;68.00;55.67;;;;;;;;5040054;28;12420;-72
2021/01/11 12:44:08;;;;;;;;;66.33;53.67;;;;;;;;5034736;28;11630;-72
2021/01/11 12:46:35;;;;;;;;;66.00;55.67;;;;;;;;5041078;28;11731;-71
2021/01/11 12:49:02;;;;;;;;;67.33;55.00;;;;;;;;5047848;28;11643;-71
2021/01/11 12:51:30;;;;;;;;;58.25;49.75;;;;;;;;5048282;28;11709;-72
2021/01/11 12:53:57;;;;;;;;;66.00;54.00;;;;;;;;5049513;28;11615;-71
2021/01/11 12:56:25;;;;;;;;;66.75;52.25;;;;;;;;5050523;28;11630;-71
2021/01/11 12:58:54;;;;;;;;;58.75;47.75;;;;;;;;5035181;28;11673;-71
2021/01/11 13:01:21;;;;;;;;;56.00;47.00;;;;;;;;5037260;28;12470;-71
2021/01/11 13:03:50;;;;;;;;;48.00;42.25;;;;;;;;5033471;28;11711;-70
2021/01/11 13:06:20;;;;;;;;;60.75;50.75;;;;;;;;5036795;28;11602;-71
2021/01/11 13:08:48;;;;;;;;;49.75;42.50;;;;;;;;5039509;28;13155;-71
2021/01/11 13:11:16;;;;;;;;;42.75;41.00;;;;;;;;5035589;28;11628;-72
2021/01/11 13:13:45;;;;;;;;;38.25;34.25;;;;;;;;5033058;28;11635;-71
2021/01/11 13:16:12;;;;;;;;;40.25;35.00;;;;;;;;5041860;28;12371;-71
2021/01/11 13:18:39;;;;;;;;;48.00;40.50;;;;;;;;5039007;28;11697;-71
2021/01/11 13:21:07;;;;;;;;;43.00;34.25;;;;;;;;5040083;28;11610;-72
2021/01/11 13:23:33;;;;;;;;;47.25;43.50;;;;;;;;5034919;28;11623;-73
2021/01/11 13:26:01;;;;;;;;;47.00;43.75;;;;;;;;5038149;28;11628;-71
2021/01/11 13:28:29;;;;;;;;;44.50;39.25;;;;;;;;5041359;28;11712;-71
2021/01/11 13:30:59;;;;;;;;;41.75;37.75;;;;;;;;5041976;28;11600;-71
2021/01/11 13:33:26;;;;;;;;;54.50;45.00;;;;;;;;5042561;28;11610;-71
2021/01/11 13:35:53;;;;;;;;;46.00;42.25;;;;;;;;5028338;28;11783;-72
2021/01/11 13:38:24;;;;;;;;;43.50;40.75;;;;;;;;5037318;28;11714;-71
2021/01/11 13:40:51;;;;;;;;;42.75;37.25;;;;;;;;5037318;28;11714;-72
2021/01/11 13:43:20;;;;;;;;;34.00;34.00;;;;;;;;5039952;28;11629;-72
2021/01/11 13:45:47;;;;;;;;;45.50;42.25;;;;;;;;5037448;28;11603;-72
2021/01/11 13:48:14;;;;;;;;;34.00;32.25;;;;;;;;5039697;28;11687;-71
2021/01/11 13:50:41;;;;;;;;;47.25;42.25;;;;;;;;5040658;28;11582;-72
2021/01/11 13:53:08;;;;;;;;;37.50;36.50;;;;;;;;5038161;28;11650;-71
2021/01/11 13:55:34;;;;;;;;;45.25;36.50;;;;;;;;5038349;28;12984;-72
2021/01/11 13:58:01;;;;;;;;;35.00;33.25;;;;;;;;5034165;28;11588;-72
2021/01/11 14:00:30;;;;;;;;;41.00;36.50;;;;;;;;5042352;28;12449;-72
2021/01/11 14:02:57;;;;;;;;;47.75;40.75;;;;;;;;5036980;28;11697;-71
2021/01/11 14:05:23;;;;;;;;;54.50;46.00;;;;;;;;5036937;28;11618;-71
2021/01/11 14:07:50;;;;;;;;;37.25;37.00;;;;;;;;5042421;28;11586;-72
2021/01/11 14:10:17;;;;;;;;;36.00;36.00;;;;;;;;5042564;28;11574;-72
2021/01/11 14:12:44;;;;;;;;;30.25;30.25;;;;;;;;5035768;28;11616;-71
2021/01/11 14:15:12;;;;;;;;;40.00;31.25;;;;;;;;5038967;28;11586;-72
2021/01/11 14:17:40;;;;;;;;;18.50;18.50;;;;;;;;5041919;28;11621;-72
2021/01/11 14:20:08;;;;;;;;;33.75;28.75;;;;;;;;5038088;28;11568;-72
2021/01/11 14:22:35;;;;;;;;;45.75;41.75;;;;;;;;5037020;28;11757;-71
2021/01/11 14:25:02;;;;;;;;;41.00;40.00;;;;;;;;5030122;28;11597;-71
2021/01/11 14:27:29;;;;;;;;;44.75;41.50;;;;;;;;5027042;28;11608;-71
2021/01/11 14:29:55;;;;;;;;;57.75;49.00;;;;;;;;5030156;28;11597;-71
2021/01/11 14:32:22;;;;;;;;;78.33;64.00;;;;;;;;5028541;28;11585;-71
2021/01/11 14:34:50;;;;;;;;;43.00;40.00;;;;;;;;5039091;28;8865;-71
2021/01/11 14:37:17;;;;;;;;;62.50;48.50;;;;;;;;5042418;28;11623;-71
2021/01/11 14:39:44;;;;;;;;;39.75;38.75;;;;;;;;5039663;28;11615;-71